sensor_id;sensor_type;location;lat;lon;timestamp;P1;durP1;ratioP1;P2;durP2;ratioP2
57047;SDS011;42934;54.294;18.598;2022-08-01T00:00:24;6.70;;;3.40;;
57047;SDS011;42934;54.294;18.598;2022-08-01T00:03:06;7.90;;;3.30;;
57047;SDS011;42934;54.294;18.598;2022-08-01T00:05:35;5.55;;;3.05;;
57047;SDS011;42934;54.294;18.598;2022-08-01T00:08:04;4.77;;;3.13;;
57047;SDS011;42934;54.294;18.598;2022-08-01T00:10:34;7.63;;;3.00;;
57047;SDS011;42934;54.294;18.598;2022-08-01T00:13:05;8.68;;;3.40;;
57047;SDS011;42934;54.294;18.598;2022-08-01T00:15:36;6.00;;;3.20;;
57047;SDS011;42934;54.294;18.598;2022-08-01T00:18:05;4.95;;;2.95;;
57047;SDS011;42934;54.294;18.598;2022-08-01T00:20:35;4.22;;;3.17;;
57047;SDS011;42934;54.294;18.598;2022-08-01T00:23:04;4.30;;;3.30;;
57047;SDS011;42934;54.294;18.598;2022-08-01T00:25:34;6.47;;;3.42;;
57047;SDS011;42934;54.294;18.598;2022-08-01T00:28:05;5.50;;;3.30;;
57047;SDS011;42934;54.294;18.598;2022-08-01T00:30:35;7.00;;;3.30;;
57047;SDS011;42934;54.294;18.598;2022-08-01T00:33:04;5.15;;;3.53;;
57047;SDS011;42934;54.294;18.598;2022-08-01T00:35:34;5.93;;;3.00;;
57047;SDS011;42934;54.294;18.598;2022-08-01T00:38:03;4.82;;;3.08;;
57047;SDS011;42934;54.294;18.598;2022-08-01T00:40:33;4.57;;;3.20;;
57047;SDS011;42934;54.294;18.598;2022-08-01T00:43:02;5.03;;;3.30;;
57047;SDS011;42934;54.294;18.598;2022-08-01T00:45:33;4.15;;;2.95;;
57047;SDS011;42934;54.294;18.598;2022-08-01T00:48:03;3.30;;;3.00;;
57047;SDS011;42934;54.294;18.598;2022-08-01T00:50:32;6.65;;;3.60;;
57047;SDS011;42934;54.294;18.598;2022-08-01T00:55:32;6.18;;;3.22;;
57047;SDS011;42934;54.294;18.598;2022-08-01T00:58:01;7.05;;;3.10;;
57047;SDS011;42934;54.294;18.598;2022-08-01T01:00:34;4.78;;;3.15;;
57047;SDS011;42934;54.294;18.598;2022-08-01T01:03:20;6.63;;;3.70;;
57047;SDS011;42934;54.294;18.598;2022-08-01T01:06:13;4.90;;;3.47;;
57047;SDS011;42934;54.294;18.598;2022-08-01T01:08:58;7.00;;;3.38;;
57047;SDS011;42934;54.294;18.598;2022-08-01T01:11:42;4.45;;;3.10;;
57047;SDS011;42934;54.294;18.598;2022-08-01T01:14:21;6.60;;;3.13;;
57047;SDS011;42934;54.294;18.598;2022-08-01T01:17:00;4.82;;;3.10;;
57047;SDS011;42934;54.294;18.598;2022-08-01T01:19:35;5.18;;;3.17;;
57047;SDS011;42934;54.294;18.598;2022-08-01T01:25:18;5.00;;;2.92;;
57047;SDS011;42934;54.294;18.598;2022-08-01T01:28:02;5.72;;;3.08;;
57047;SDS011;42934;54.294;18.598;2022-08-01T01:30:44;4.40;;;2.70;;
57047;SDS011;42934;54.294;18.598;2022-08-01T01:33:17;3.35;;;2.88;;
57047;SDS011;42934;54.294;18.598;2022-08-01T01:35:50;5.30;;;2.75;;
57047;SDS011;42934;54.294;18.598;2022-08-01T01:38:26;5.57;;;3.13;;
57047;SDS011;42934;54.294;18.598;2022-08-01T01:40:59;4.53;;;3.00;;
57047;SDS011;42934;54.294;18.598;2022-08-01T01:43:31;5.63;;;2.85;;
57047;SDS011;42934;54.294;18.598;2022-08-01T01:46:04;5.80;;;3.10;;
57047;SDS011;42934;54.294;18.598;2022-08-01T01:48:35;6.72;;;3.33;;
57047;SDS011;42934;54.294;18.598;2022-08-01T01:51:06;4.88;;;3.30;;
57047;SDS011;42934;54.294;18.598;2022-08-01T01:53:36;3.42;;;3.00;;
57047;SDS011;42934;54.294;18.598;2022-08-01T01:56:07;4.40;;;3.10;;
57047;SDS011;42934;54.294;18.598;2022-08-01T01:58:39;7.22;;;2.90;;
57047;SDS011;42934;54.294;18.598;2022-08-01T02:01:11;5.93;;;2.75;;
57047;SDS011;42934;54.294;18.598;2022-08-01T02:04:02;4.30;;;3.20;;
57047;SDS011;42934;54.294;18.598;2022-08-01T02:09:02;4.97;;;3.33;;
57047;SDS011;42934;54.294;18.598;2022-08-01T02:14:02;4.43;;;3.33;;
57047;SDS011;42934;54.294;18.598;2022-08-01T02:16:36;3.75;;;2.83;;
57047;SDS011;42934;54.294;18.598;2022-08-01T02:19:11;5.32;;;2.92;;
57047;SDS011;42934;54.294;18.598;2022-08-01T02:21:44;3.78;;;3.08;;
57047;SDS011;42934;54.294;18.598;2022-08-01T02:24:17;7.85;;;3.20;;
57047;SDS011;42934;54.294;18.598;2022-08-01T02:27:00;6.05;;;2.75;;
57047;SDS011;42934;54.294;18.598;2022-08-01T02:29:36;5.13;;;2.97;;
57047;SDS011;42934;54.294;18.598;2022-08-01T02:32:13;5.00;;;2.97;;
57047;SDS011;42934;54.294;18.598;2022-08-01T02:34:47;3.88;;;2.80;;
57047;SDS011;42934;54.294;18.598;2022-08-01T02:37:19;4.63;;;2.88;;
57047;SDS011;42934;54.294;18.598;2022-08-01T02:39:50;3.28;;;2.45;;
57047;SDS011;42934;54.294;18.598;2022-08-01T02:42:23;6.05;;;2.75;;
57047;SDS011;42934;54.294;18.598;2022-08-01T02:44:54;3.35;;;2.83;;
57047;SDS011;42934;54.294;18.598;2022-08-01T02:47:26;6.22;;;3.00;;
57047;SDS011;42934;54.294;18.598;2022-08-01T02:49:57;5.55;;;2.78;;
57047;SDS011;42934;54.294;18.598;2022-08-01T02:52:28;4.55;;;2.50;;
57047;SDS011;42934;54.294;18.598;2022-08-01T02:54:59;5.68;;;2.60;;
57047;SDS011;42934;54.294;18.598;2022-08-01T02:57:29;4.90;;;2.80;;
57047;SDS011;42934;54.294;18.598;2022-08-01T03:00:18;3.75;;;2.65;;
57047;SDS011;42934;54.294;18.598;2022-08-01T03:02:52;4.45;;;2.72;;
57047;SDS011;42934;54.294;18.598;2022-08-01T03:05:23;5.28;;;2.88;;
57047;SDS011;42934;54.294;18.598;2022-08-01T03:07:54;4.40;;;2.78;;
57047;SDS011;42934;54.294;18.598;2022-08-01T03:10:30;5.85;;;2.90;;
57047;SDS011;42934;54.294;18.598;2022-08-01T03:13:00;4.30;;;2.88;;
57047;SDS011;42934;54.294;18.598;2022-08-01T03:15:32;4.85;;;2.40;;
57047;SDS011;42934;54.294;18.598;2022-08-01T03:18:06;3.65;;;2.60;;
57047;SDS011;42934;54.294;18.598;2022-08-01T03:20:38;3.35;;;2.80;;
57047;SDS011;42934;54.294;18.598;2022-08-01T03:23:09;2.85;;;2.50;;
57047;SDS011;42934;54.294;18.598;2022-08-01T03:25:40;4.53;;;2.80;;
57047;SDS011;42934;54.294;18.598;2022-08-01T03:28:13;7.35;;;2.90;;
57047;SDS011;42934;54.294;18.598;2022-08-01T03:30:44;4.20;;;2.95;;
57047;SDS011;42934;54.294;18.598;2022-08-01T03:33:18;4.28;;;2.53;;
57047;SDS011;42934;54.294;18.598;2022-08-01T03:35:49;3.00;;;2.50;;
57047;SDS011;42934;54.294;18.598;2022-08-01T03:38:22;3.80;;;2.85;;
57047;SDS011;42934;54.294;18.598;2022-08-01T03:40:55;4.90;;;2.80;;
57047;SDS011;42934;54.294;18.598;2022-08-01T03:43:28;5.00;;;2.63;;
57047;SDS011;42934;54.294;18.598;2022-08-01T03:46:04;3.22;;;2.67;;
57047;SDS011;42934;54.294;18.598;2022-08-01T03:48:39;3.88;;;2.50;;
57047;SDS011;42934;54.294;18.598;2022-08-01T03:51:13;6.13;;;2.35;;
57047;SDS011;42934;54.294;18.598;2022-08-01T03:53:45;2.60;;;2.22;;
57047;SDS011;42934;54.294;18.598;2022-08-01T03:56:18;5.15;;;2.40;;
57047;SDS011;42934;54.294;18.598;2022-08-01T03:58:48;4.82;;;2.55;;
57047;SDS011;42934;54.294;18.598;2022-08-01T04:01:19;4.90;;;2.60;;
57047;SDS011;42934;54.294;18.598;2022-08-01T04:03:50;6.65;;;2.20;;
57047;SDS011;42934;54.294;18.598;2022-08-01T04:06:20;3.67;;;2.65;;
57047;SDS011;42934;54.294;18.598;2022-08-01T04:08:50;6.13;;;2.45;;
57047;SDS011;42934;54.294;18.598;2022-08-01T04:11:23;3.80;;;2.50;;
57047;SDS011;42934;54.294;18.598;2022-08-01T04:13:54;3.33;;;1.85;;
57047;SDS011;42934;54.294;18.598;2022-08-01T04:16:24;3.92;;;2.30;;
57047;SDS011;42934;54.294;18.598;2022-08-01T04:18:55;3.78;;;2.05;;
57047;SDS011;42934;54.294;18.598;2022-08-01T04:21:25;3.83;;;2.05;;
57047;SDS011;42934;54.294;18.598;2022-08-01T04:23:58;3.53;;;2.35;;
57047;SDS011;42934;54.294;18.598;2022-08-01T04:26:31;4.72;;;1.80;;
57047;SDS011;42934;54.294;18.598;2022-08-01T04:29:02;3.20;;;2.30;;
57047;SDS011;42934;54.294;18.598;2022-08-01T04:31:34;3.70;;;1.98;;
57047;SDS011;42934;54.294;18.598;2022-08-01T04:34:07;4.25;;;2.03;;
57047;SDS011;42934;54.294;18.598;2022-08-01T04:36:41;3.95;;;2.00;;
57047;SDS011;42934;54.294;18.598;2022-08-01T04:39:11;5.28;;;2.30;;
57047;SDS011;42934;54.294;18.598;2022-08-01T04:41:45;10.27;;;2.05;;
57047;SDS011;42934;54.294;18.598;2022-08-01T04:44:15;2.72;;;2.08;;
57047;SDS011;42934;54.294;18.598;2022-08-01T04:46:44;5.32;;;1.92;;
57047;SDS011;42934;54.294;18.598;2022-08-01T04:49:16;2.90;;;1.77;;
57047;SDS011;42934;54.294;18.598;2022-08-01T04:51:49;2.90;;;1.80;;
57047;SDS011;42934;54.294;18.598;2022-08-01T04:54:24;2.53;;;2.10;;
57047;SDS011;42934;54.294;18.598;2022-08-01T04:56:53;3.58;;;2.20;;
57047;SDS011;42934;54.294;18.598;2022-08-01T04:59:26;2.90;;;2.17;;
57047;SDS011;42934;54.294;18.598;2022-08-01T05:02:09;5.32;;;2.08;;
57047;SDS011;42934;54.294;18.598;2022-08-01T05:04:41;3.15;;;2.10;;
57047;SDS011;42934;54.294;18.598;2022-08-01T05:07:11;2.97;;;2.00;;
57047;SDS011;42934;54.294;18.598;2022-08-01T05:09:42;4.40;;;1.80;;
57047;SDS011;42934;54.294;18.598;2022-08-01T05:12:12;7.55;;;2.38;;
57047;SDS011;42934;54.294;18.598;2022-08-01T05:14:42;7.60;;;2.78;;
57047;SDS011;42934;54.294;18.598;2022-08-01T05:17:12;8.35;;;2.28;;
57047;SDS011;42934;54.294;18.598;2022-08-01T05:19:44;8.90;;;2.53;;
57047;SDS011;42934;54.294;18.598;2022-08-01T05:22:14;3.17;;;2.15;;
57047;SDS011;42934;54.294;18.598;2022-08-01T05:24:43;8.82;;;2.30;;
57047;SDS011;42934;54.294;18.598;2022-08-01T05:27:15;4.75;;;2.00;;
57047;SDS011;42934;54.294;18.598;2022-08-01T05:29:45;3.85;;;2.20;;
57047;SDS011;42934;54.294;18.598;2022-08-01T05:32:14;6.03;;;2.33;;
57047;SDS011;42934;54.294;18.598;2022-08-01T05:34:45;2.95;;;1.90;;
57047;SDS011;42934;54.294;18.598;2022-08-01T05:37:14;5.82;;;1.80;;
57047;SDS011;42934;54.294;18.598;2022-08-01T05:39:43;4.90;;;2.30;;
57047;SDS011;42934;54.294;18.598;2022-08-01T05:42:13;5.10;;;2.00;;
57047;SDS011;42934;54.294;18.598;2022-08-01T05:44:42;5.93;;;2.00;;
57047;SDS011;42934;54.294;18.598;2022-08-01T05:47:12;3.60;;;1.80;;
57047;SDS011;42934;54.294;18.598;2022-08-01T05:49:41;4.43;;;1.90;;
57047;SDS011;42934;54.294;18.598;2022-08-01T05:52:12;8.80;;;2.20;;
57047;SDS011;42934;54.294;18.598;2022-08-01T05:54:42;5.90;;;2.30;;
57047;SDS011;42934;54.294;18.598;2022-08-01T05:57:11;5.03;;;1.90;;
57047;SDS011;42934;54.294;18.598;2022-08-01T05:59:41;7.45;;;2.00;;
57047;SDS011;42934;54.294;18.598;2022-08-01T06:02:10;5.88;;;2.10;;
57047;SDS011;42934;54.294;18.598;2022-08-01T06:04:39;3.92;;;2.05;;
57047;SDS011;42934;54.294;18.598;2022-08-01T06:07:09;3.20;;;2.10;;
57047;SDS011;42934;54.294;18.598;2022-08-01T06:09:40;10.10;;;2.30;;
57047;SDS011;42934;54.294;18.598;2022-08-01T06:12:09;3.95;;;2.03;;
57047;SDS011;42934;54.294;18.598;2022-08-01T06:14:38;7.23;;;2.20;;
57047;SDS011;42934;54.294;18.598;2022-08-01T06:17:08;7.35;;;2.20;;
57047;SDS011;42934;54.294;18.598;2022-08-01T06:19:37;5.57;;;1.85;;
57047;SDS011;42934;54.294;18.598;2022-08-01T06:22:06;3.97;;;2.05;;
57047;SDS011;42934;54.294;18.598;2022-08-01T06:24:37;7.75;;;1.88;;
57047;SDS011;42934;54.294;18.598;2022-08-01T06:27:07;4.30;;;2.00;;
57047;SDS011;42934;54.294;18.598;2022-08-01T06:29:48;9.57;;;2.03;;
57047;SDS011;42934;54.294;18.598;2022-08-01T06:32:20;7.75;;;1.73;;
57047;SDS011;42934;54.294;18.598;2022-08-01T06:34:54;6.72;;;1.92;;
57047;SDS011;42934;54.294;18.598;2022-08-01T06:37:23;3.95;;;1.92;;
57047;SDS011;42934;54.294;18.598;2022-08-01T06:39:58;11.50;;;2.10;;
57047;SDS011;42934;54.294;18.598;2022-08-01T06:42:29;6.18;;;1.80;;
57047;SDS011;42934;54.294;18.598;2022-08-01T06:45:02;2.67;;;1.80;;
57047;SDS011;42934;54.294;18.598;2022-08-01T06:47:31;3.13;;;1.73;;
57047;SDS011;42934;54.294;18.598;2022-08-01T06:50:01;3.70;;;1.60;;
57047;SDS011;42934;54.294;18.598;2022-08-01T06:52:35;1.83;;;1.58;;
57047;SDS011;42934;54.294;18.598;2022-08-01T06:55:07;2.60;;;1.50;;
57047;SDS011;42934;54.294;18.598;2022-08-01T06:57:44;6.13;;;1.77;;
57047;SDS011;42934;54.294;18.598;2022-08-01T07:00:14;3.95;;;1.60;;
57047;SDS011;42934;54.294;18.598;2022-08-01T07:02:49;2.50;;;1.42;;
57047;SDS011;42934;54.294;18.598;2022-08-01T07:05:18;6.78;;;1.50;;
57047;SDS011;42934;54.294;18.598;2022-08-01T07:07:48;5.97;;;1.40;;
57047;SDS011;42934;54.294;18.598;2022-08-01T07:12:48;4.10;;;1.38;;
57047;SDS011;42934;54.294;18.598;2022-08-01T07:15:18;3.08;;;1.50;;
57047;SDS011;42934;54.294;18.598;2022-08-01T07:17:53;4.45;;;1.35;;
57047;SDS011;42934;54.294;18.598;2022-08-01T07:20:23;2.97;;;1.30;;
57047;SDS011;42934;54.294;18.598;2022-08-01T07:22:53;2.80;;;1.20;;
57047;SDS011;42934;54.294;18.598;2022-08-01T07:25:24;4.70;;;1.40;;
57047;SDS011;42934;54.294;18.598;2022-08-01T07:27:53;1.50;;;1.30;;
57047;SDS011;42934;54.294;18.598;2022-08-01T07:30:23;5.63;;;1.50;;
57047;SDS011;42934;54.294;18.598;2022-08-01T07:32:52;5.03;;;1.45;;
57047;SDS011;42934;54.294;18.598;2022-08-01T07:35:21;2.60;;;1.30;;
57047;SDS011;42934;54.294;18.598;2022-08-01T07:37:51;4.78;;;1.33;;
57047;SDS011;42934;54.294;18.598;2022-08-01T07:40:21;2.88;;;1.40;;
57047;SDS011;42934;54.294;18.598;2022-08-01T07:42:52;4.30;;;1.42;;
57047;SDS011;42934;54.294;18.598;2022-08-01T07:45:21;4.82;;;1.27;;
57047;SDS011;42934;54.294;18.598;2022-08-01T07:47:50;4.68;;;1.40;;
57047;SDS011;42934;54.294;18.598;2022-08-01T07:50:20;2.63;;;1.23;;
57047;SDS011;42934;54.294;18.598;2022-08-01T07:52:49;2.63;;;1.10;;
57047;SDS011;42934;54.294;18.598;2022-08-01T07:55:18;4.30;;;1.30;;
57047;SDS011;42934;54.294;18.598;2022-08-01T07:57:49;5.05;;;1.20;;
57047;SDS011;42934;54.294;18.598;2022-08-01T08:00:19;4.20;;;1.33;;
57047;SDS011;42934;54.294;18.598;2022-08-01T08:02:48;4.88;;;1.20;;
57047;SDS011;42934;54.294;18.598;2022-08-01T08:05:17;3.63;;;1.20;;
57047;SDS011;42934;54.294;18.598;2022-08-01T08:08:07;5.50;;;1.20;;
57047;SDS011;42934;54.294;18.598;2022-08-01T08:10:38;3.30;;;1.30;;
57047;SDS011;42934;54.294;18.598;2022-08-01T08:13:09;3.75;;;1.20;;
57047;SDS011;42934;54.294;18.598;2022-08-01T08:15:39;1.42;;;1.20;;
57047;SDS011;42934;54.294;18.598;2022-08-01T08:18:13;4.53;;;1.35;;
57047;SDS011;42934;54.294;18.598;2022-08-01T08:20:43;4.85;;;1.20;;
57047;SDS011;42934;54.294;18.598;2022-08-01T08:23:15;2.22;;;1.25;;
57047;SDS011;42934;54.294;18.598;2022-08-01T08:26:09;2.20;;;1.20;;
57047;SDS011;42934;54.294;18.598;2022-08-01T08:28:40;3.20;;;1.40;;
57047;SDS011;42934;54.294;18.598;2022-08-01T08:31:09;7.82;;;1.40;;
57047;SDS011;42934;54.294;18.598;2022-08-01T08:33:59;2.53;;;1.30;;
57047;SDS011;42934;54.294;18.598;2022-08-01T08:36:28;3.10;;;1.15;;
57047;SDS011;42934;54.294;18.598;2022-08-01T08:38:57;6.70;;;1.20;;
57047;SDS011;42934;54.294;18.598;2022-08-01T08:41:29;5.38;;;1.10;;
57047;SDS011;42934;54.294;18.598;2022-08-01T08:44:05;1.30;;;1.10;;
57047;SDS011;42934;54.294;18.598;2022-08-01T08:46:39;2.85;;;1.40;;
57047;SDS011;42934;54.294;18.598;2022-08-01T08:49:11;1.75;;;1.20;;
57047;SDS011;42934;54.294;18.598;2022-08-01T08:51:44;3.03;;;1.10;;
57047;SDS011;42934;54.294;18.598;2022-08-01T08:54:20;1.92;;;0.98;;
57047;SDS011;42934;54.294;18.598;2022-08-01T08:59:28;2.35;;;1.10;;
57047;SDS011;42934;54.294;18.598;2022-08-01T09:01:59;3.45;;;1.30;;
57047;SDS011;42934;54.294;18.598;2022-08-01T09:04:28;2.42;;;1.10;;
57047;SDS011;42934;54.294;18.598;2022-08-01T09:06:58;2.42;;;1.10;;
57047;SDS011;42934;54.294;18.598;2022-08-01T09:09:27;2.22;;;1.13;;
57047;SDS011;42934;54.294;18.598;2022-08-01T09:11:58;2.83;;;1.20;;
57047;SDS011;42934;54.294;18.598;2022-08-01T09:14:29;4.63;;;1.10;;
57047;SDS011;42934;54.294;18.598;2022-08-01T09:16:59;17.42;;;1.52;;
57047;SDS011;42934;54.294;18.598;2022-08-01T09:19:36;4.10;;;1.17;;
57047;SDS011;42934;54.294;18.598;2022-08-01T09:22:08;3.88;;;1.10;;
57047;SDS011;42934;54.294;18.598;2022-08-01T09:24:39;1.83;;;0.95;;
57047;SDS011;42934;54.294;18.598;2022-08-01T09:27:16;2.47;;;1.08;;
57047;SDS011;42934;54.294;18.598;2022-08-01T09:29:52;3.28;;;1.15;;
57047;SDS011;42934;54.294;18.598;2022-08-01T09:32:28;5.68;;;1.13;;
57047;SDS011;42934;54.294;18.598;2022-08-01T09:35:21;1.88;;;1.10;;
57047;SDS011;42934;54.294;18.598;2022-08-01T09:38:16;2.33;;;1.10;;
57047;SDS011;42934;54.294;18.598;2022-08-01T09:40:48;3.13;;;1.40;;
57047;SDS011;42934;54.294;18.598;2022-08-01T09:43:19;6.20;;;1.13;;
57047;SDS011;42934;54.294;18.598;2022-08-01T09:45:51;3.90;;;1.20;;
57047;SDS011;42934;54.294;18.598;2022-08-01T09:48:23;1.92;;;1.13;;
57047;SDS011;42934;54.294;18.598;2022-08-01T09:50:56;6.05;;;1.00;;
57047;SDS011;42934;54.294;18.598;2022-08-01T09:53:39;6.65;;;1.27;;
57047;SDS011;42934;54.294;18.598;2022-08-01T09:56:18;2.15;;;1.33;;
57047;SDS011;42934;54.294;18.598;2022-08-01T09:58:49;2.53;;;1.55;;
57047;SDS011;42934;54.294;18.598;2022-08-01T10:01:27;3.28;;;1.70;;
57047;SDS011;42934;54.294;18.598;2022-08-01T10:04:10;3.53;;;1.60;;
57047;SDS011;42934;54.294;18.598;2022-08-01T10:06:43;6.80;;;1.60;;
57047;SDS011;42934;54.294;18.598;2022-08-01T10:09:26;4.75;;;1.55;;
57047;SDS011;42934;54.294;18.598;2022-08-01T10:12:07;6.13;;;1.50;;
57047;SDS011;42934;54.294;18.598;2022-08-01T10:14:42;4.07;;;1.50;;
57047;SDS011;42934;54.294;18.598;2022-08-01T10:17:18;5.10;;;1.50;;
57047;SDS011;42934;54.294;18.598;2022-08-01T10:19:48;3.72;;;1.60;;
57047;SDS011;42934;54.294;18.598;2022-08-01T10:22:24;7.60;;;1.67;;
57047;SDS011;42934;54.294;18.598;2022-08-01T10:24:58;2.67;;;1.40;;
57047;SDS011;42934;54.294;18.598;2022-08-01T10:27:32;3.72;;;1.73;;
57047;SDS011;42934;54.294;18.598;2022-08-01T10:30:05;6.55;;;1.60;;
57047;SDS011;42934;54.294;18.598;2022-08-01T10:32:51;8.10;;;1.58;;
57047;SDS011;42934;54.294;18.598;2022-08-01T10:35:21;6.13;;;1.58;;
57047;SDS011;42934;54.294;18.598;2022-08-01T10:38:10;5.70;;;1.52;;
57047;SDS011;42934;54.294;18.598;2022-08-01T10:43:10;6.95;;;1.67;;
57047;SDS011;42934;54.294;18.598;2022-08-01T10:45:48;4.07;;;1.70;;
57047;SDS011;42934;54.294;18.598;2022-08-01T10:48:20;5.95;;;1.50;;
57047;SDS011;42934;54.294;18.598;2022-08-01T10:50:57;4.32;;;1.52;;
57047;SDS011;42934;54.294;18.598;2022-08-01T10:53:29;4.38;;;1.48;;
57047;SDS011;42934;54.294;18.598;2022-08-01T10:56:09;2.58;;;1.33;;
57047;SDS011;42934;54.294;18.598;2022-08-01T10:58:42;4.72;;;1.50;;
57047;SDS011;42934;54.294;18.598;2022-08-01T11:04:01;6.50;;;1.75;;
57047;SDS011;42934;54.294;18.598;2022-08-01T11:09:40;5.78;;;1.60;;
57047;SDS011;42934;54.294;18.598;2022-08-01T11:12:17;6.43;;;1.60;;
57047;SDS011;42934;54.294;18.598;2022-08-01T11:18:00;4.20;;;1.48;;
57047;SDS011;42934;54.294;18.598;2022-08-01T11:20:33;4.30;;;1.60;;
57047;SDS011;42934;54.294;18.598;2022-08-01T11:23:18;3.17;;;1.40;;
57047;SDS011;42934;54.294;18.598;2022-08-01T11:26:19;4.18;;;1.80;;
57047;SDS011;42934;54.294;18.598;2022-08-01T11:29:14;6.32;;;1.50;;
57047;SDS011;42934;54.294;18.598;2022-08-01T11:31:48;10.10;;;1.88;;
57047;SDS011;42934;54.294;18.598;2022-08-01T11:34:19;4.47;;;1.52;;
57047;SDS011;42934;54.294;18.598;2022-08-01T11:37:23;6.18;;;1.40;;
57047;SDS011;42934;54.294;18.598;2022-08-01T11:42:51;4.30;;;1.58;;
57047;SDS011;42934;54.294;18.598;2022-08-01T11:45:47;6.15;;;1.38;;
57047;SDS011;42934;54.294;18.598;2022-08-01T11:48:19;6.47;;;1.48;;
57047;SDS011;42934;54.294;18.598;2022-08-01T11:50:54;4.05;;;1.27;;
57047;SDS011;42934;54.294;18.598;2022-08-01T11:53:29;1.83;;;1.38;;
57047;SDS011;42934;54.294;18.598;2022-08-01T11:56:03;4.15;;;1.50;;
57047;SDS011;42934;54.294;18.598;2022-08-01T11:58:32;3.38;;;1.58;;
57047;SDS011;42934;54.294;18.598;2022-08-01T12:01:02;4.72;;;1.40;;
57047;SDS011;42934;54.294;18.598;2022-08-01T12:03:33;4.55;;;1.65;;
57047;SDS011;42934;54.294;18.598;2022-08-01T12:06:02;5.43;;;1.40;;
57047;SDS011;42934;54.294;18.598;2022-08-01T12:08:34;5.28;;;1.52;;
57047;SDS011;42934;54.294;18.598;2022-08-01T12:11:04;7.15;;;1.42;;
57047;SDS011;42934;54.294;18.598;2022-08-01T12:13:40;4.07;;;1.48;;
57047;SDS011;42934;54.294;18.598;2022-08-01T12:16:10;4.40;;;1.60;;
57047;SDS011;42934;54.294;18.598;2022-08-01T12:18:41;4.68;;;1.42;;
57047;SDS011;42934;54.294;18.598;2022-08-01T12:21:11;3.95;;;1.50;;
57047;SDS011;42934;54.294;18.598;2022-08-01T12:23:42;4.43;;;1.50;;
57047;SDS011;42934;54.294;18.598;2022-08-01T12:26:11;4.13;;;1.50;;
57047;SDS011;42934;54.294;18.598;2022-08-01T12:28:58;4.40;;;1.50;;
57047;SDS011;42934;54.294;18.598;2022-08-01T12:31:30;6.20;;;1.50;;
57047;SDS011;42934;54.294;18.598;2022-08-01T12:36:55;5.45;;;1.48;;
57047;SDS011;42934;54.294;18.598;2022-08-01T12:39:30;3.35;;;1.45;;
57047;SDS011;42934;54.294;18.598;2022-08-01T12:42:05;4.70;;;1.50;;
57047;SDS011;42934;54.294;18.598;2022-08-01T12:44:37;5.15;;;1.80;;
57047;SDS011;42934;54.294;18.598;2022-08-01T12:47:08;3.67;;;1.35;;
57047;SDS011;42934;54.294;18.598;2022-08-01T12:49:38;5.97;;;1.55;;
57047;SDS011;42934;54.294;18.598;2022-08-01T12:52:09;6.13;;;1.40;;
57047;SDS011;42934;54.294;18.598;2022-08-01T12:55:02;3.88;;;1.50;;
57047;SDS011;42934;54.294;18.598;2022-08-01T12:57:36;4.03;;;1.40;;
57047;SDS011;42934;54.294;18.598;2022-08-01T13:00:11;4.95;;;1.33;;
57047;SDS011;42934;54.294;18.598;2022-08-01T13:02:47;4.18;;;1.10;;
57047;SDS011;42934;54.294;18.598;2022-08-01T13:05:18;4.20;;;1.52;;
57047;SDS011;42934;54.294;18.598;2022-08-01T13:07:48;4.57;;;1.60;;
57047;SDS011;42934;54.294;18.598;2022-08-01T13:10:26;5.00;;;1.58;;
57047;SDS011;42934;54.294;18.598;2022-08-01T13:12:57;2.97;;;1.30;;
57047;SDS011;42934;54.294;18.598;2022-08-01T13:15:28;4.85;;;1.30;;
57047;SDS011;42934;54.294;18.598;2022-08-01T13:18:00;2.50;;;1.30;;
57047;SDS011;42934;54.294;18.598;2022-08-01T13:20:50;4.20;;;1.45;;
57047;SDS011;42934;54.294;18.598;2022-08-01T13:23:37;4.18;;;1.50;;
57047;SDS011;42934;54.294;18.598;2022-08-01T13:26:41;4.70;;;1.50;;
57047;SDS011;42934;54.294;18.598;2022-08-01T13:29:12;5.85;;;2.10;;
57047;SDS011;42934;54.294;18.598;2022-08-01T13:31:43;4.90;;;1.60;;
57047;SDS011;42934;54.294;18.598;2022-08-01T13:34:14;1.63;;;1.30;;
57047;SDS011;42934;54.294;18.598;2022-08-01T13:36:44;4.53;;;1.60;;
57047;SDS011;42934;54.294;18.598;2022-08-01T13:39:15;5.90;;;1.50;;
57047;SDS011;42934;54.294;18.598;2022-08-01T13:42:06;2.60;;;1.37;;
57047;SDS011;42934;54.294;18.598;2022-08-01T13:44:36;5.35;;;1.52;;
57047;SDS011;42934;54.294;18.598;2022-08-01T13:47:05;2.22;;;1.70;;
57047;SDS011;42934;54.294;18.598;2022-08-01T13:49:42;6.53;;;1.30;;
57047;SDS011;42934;54.294;18.598;2022-08-01T13:52:12;3.75;;;1.38;;
57047;SDS011;42934;54.294;18.598;2022-08-01T13:54:41;4.68;;;1.80;;
57047;SDS011;42934;54.294;18.598;2022-08-01T13:57:12;3.05;;;1.20;;
57047;SDS011;42934;54.294;18.598;2022-08-01T13:59:43;4.88;;;1.50;;
57047;SDS011;42934;54.294;18.598;2022-08-01T14:02:12;5.70;;;1.30;;
57047;SDS011;42934;54.294;18.598;2022-08-01T14:04:41;3.88;;;1.27;;
57047;SDS011;42934;54.294;18.598;2022-08-01T14:07:11;6.00;;;1.40;;
57047;SDS011;42934;54.294;18.598;2022-08-01T14:09:41;2.47;;;1.35;;
57047;SDS011;42934;54.294;18.598;2022-08-01T14:12:32;4.13;;;1.50;;
57047;SDS011;42934;54.294;18.598;2022-08-01T14:15:01;4.38;;;1.30;;
57047;SDS011;42934;54.294;18.598;2022-08-01T14:17:32;4.72;;;1.35;;
57047;SDS011;42934;54.294;18.598;2022-08-01T14:20:04;6.43;;;1.50;;
57047;SDS011;42934;54.294;18.598;2022-08-01T14:22:34;5.95;;;2.05;;
57047;SDS011;42934;54.294;18.598;2022-08-01T14:25:03;4.28;;;1.25;;
57047;SDS011;42934;54.294;18.598;2022-08-01T14:27:35;9.65;;;1.60;;
57047;SDS011;42934;54.294;18.598;2022-08-01T14:30:07;4.25;;;1.20;;
57047;SDS011;42934;54.294;18.598;2022-08-01T14:32:37;2.70;;;1.10;;
57047;SDS011;42934;54.294;18.598;2022-08-01T14:35:07;4.68;;;1.88;;
57047;SDS011;42934;54.294;18.598;2022-08-01T14:40:07;11.55;;;3.95;;
57047;SDS011;42934;54.294;18.598;2022-08-01T14:42:38;8.40;;;3.35;;
57047;SDS011;42934;54.294;18.598;2022-08-01T14:49:28;3.85;;;1.50;;
57047;SDS011;42934;54.294;18.598;2022-08-01T14:52:17;2.13;;;1.20;;
57047;SDS011;42934;54.294;18.598;2022-08-01T14:54:48;8.20;;;1.30;;
57047;SDS011;42934;54.294;18.598;2022-08-01T14:57:17;1.85;;;1.10;;
57047;SDS011;42934;54.294;18.598;2022-08-01T14:59:48;4.28;;;1.40;;
57047;SDS011;42934;54.294;18.598;2022-08-01T15:02:18;6.97;;;1.33;;
57047;SDS011;42934;54.294;18.598;2022-08-01T15:04:48;6.72;;;1.30;;
57047;SDS011;42934;54.294;18.598;2022-08-01T15:07:17;5.47;;;1.70;;
57047;SDS011;42934;54.294;18.598;2022-08-01T15:09:47;4.00;;;1.75;;
57047;SDS011;42934;54.294;18.598;2022-08-01T15:12:16;4.93;;;1.63;;
57047;SDS011;42934;54.294;18.598;2022-08-01T15:14:46;5.35;;;1.75;;
57047;SDS011;42934;54.294;18.598;2022-08-01T15:17:18;7.40;;;1.58;;
57047;SDS011;42934;54.294;18.598;2022-08-01T15:19:50;5.68;;;1.67;;
57047;SDS011;42934;54.294;18.598;2022-08-01T15:22:22;9.35;;;1.90;;
57047;SDS011;42934;54.294;18.598;2022-08-01T15:24:52;4.15;;;1.50;;
57047;SDS011;42934;54.294;18.598;2022-08-01T15:27:25;6.07;;;1.77;;
57047;SDS011;42934;54.294;18.598;2022-08-01T15:29:56;8.30;;;1.58;;
57047;SDS011;42934;54.294;18.598;2022-08-01T15:32:26;4.72;;;1.70;;
57047;SDS011;42934;54.294;18.598;2022-08-01T15:34:55;5.80;;;1.55;;
57047;SDS011;42934;54.294;18.598;2022-08-01T15:37:25;6.45;;;1.70;;
57047;SDS011;42934;54.294;18.598;2022-08-01T15:39:54;3.72;;;1.50;;
57047;SDS011;42934;54.294;18.598;2022-08-01T15:42:24;6.05;;;1.60;;
57047;SDS011;42934;54.294;18.598;2022-08-01T15:44:53;9.82;;;2.17;;
57047;SDS011;42934;54.294;18.598;2022-08-01T15:47:24;5.47;;;2.00;;